< < Back
Terminal Aerodrome Forecast


Current Version              Previous Versions:   1  2  3  4  5  6  7  8  9  

Terminal Aerodrome Forecast

798
FTUS44 KOHX 011100
TAFCSV
TAF
KCSV 011120Z 0112/0212 00000KT 4SM BR SCT250
     FM011300 23006KT P6SM SCT040
     FM020000 00000KT P6SM SCT150
     FM021000 00000KT 5SM BR SKC=

Latest METAR

386
SAUS70 KWBC 011400 RRL
MTRCSV
METAR KCSV 011353Z AUTO 00000KT 10SM CLR 19/14 A3006 RMK AO2 SLP166
T01940139


USA.gov is the U.S. government's official web portal to all federal, state and local government web resources and services.